createdAt,value
2023-04-05T00:01:50.323Z,5.18
2023-04-05T00:04:52.551Z,4.82
2023-04-05T00:07:54.662Z,5.20
2023-04-05T00:10:56.199Z,4.88
2023-04-05T00:13:59.098Z,5.70
2023-04-05T00:16:59.982Z,5.18
2023-04-05T00:20:02.098Z,5.70
2023-04-05T00:23:03.046Z,5.18
2023-04-05T00:26:04.156Z,5.15
2023-04-05T00:29:04.998Z,5.22
2023-04-05T00:32:06.061Z,5.22
2023-04-05T00:35:07.520Z,5.60
2023-04-05T00:38:08.334Z,5.53
2023-04-05T00:41:09.745Z,5.63
2023-04-05T00:44:13.139Z,5.63
2023-04-05T00:47:14.616Z,5.00
2023-04-05T00:50:17.372Z,5.18
2023-04-05T00:53:20.361Z,5.57
2023-04-05T00:56:22.930Z,5.93
2023-04-05T00:59:24.447Z,5.47
2023-04-05T01:02:34.041Z,5.43
2023-04-05T01:05:49.792Z,5.85
2023-04-05T01:09:08.959Z,5.40
2023-04-05T01:12:17.389Z,5.85
2023-04-05T01:15:19.131Z,5.18
2023-04-05T01:18:22.240Z,5.22
2023-04-05T01:21:38.222Z,5.20
2023-04-05T01:25:11.061Z,5.47
2023-04-05T01:28:47.199Z,5.47
2023-04-05T01:32:05.927Z,5.97
2023-04-05T01:35:15.764Z,6.13
2023-04-05T01:38:25.442Z,5.28
2023-04-05T01:41:27.392Z,5.78
2023-04-05T01:44:29.785Z,6.05
2023-04-05T01:47:31.279Z,5.63
2023-04-05T01:50:32.462Z,6.43
2023-04-05T01:53:34.271Z,7.03
2023-04-05T01:56:35.683Z,5.95
2023-04-05T01:59:38.310Z,7.70
2023-04-05T02:02:40.345Z,7.40
2023-04-05T02:05:42.582Z,6.20
2023-04-05T02:08:44.588Z,6.28
2023-04-05T02:11:45.592Z,7.32
2023-04-05T02:14:46.394Z,7.20
2023-04-05T02:17:47.229Z,8.00
2023-04-05T02:20:52.713Z,7.97
2023-04-05T02:23:55.296Z,7.03
2023-04-05T02:26:56.629Z,6.45
2023-04-05T02:29:59.062Z,6.55
2023-04-05T02:33:00.311Z,6.97
2023-04-05T02:36:09.745Z,7.20
2023-04-05T02:39:11.253Z,6.50
2023-04-05T02:42:12.832Z,6.65
2023-04-05T02:45:13.617Z,7.10
2023-04-05T02:48:14.550Z,6.60
2023-04-05T02:51:16.167Z,7.25
2023-04-05T02:54:17.108Z,7.28
2023-04-05T02:57:19.190Z,6.72
2023-04-05T03:00:28.464Z,6.93
2023-04-05T03:03:32.281Z,6.80
2023-04-05T03:06:33.553Z,6.70
2023-04-05T03:09:38.837Z,6.32
2023-04-05T03:12:43.084Z,6.22
2023-04-05T03:15:46.436Z,7.00
2023-04-05T03:18:50.636Z,6.97
2023-04-05T03:21:53.221Z,6.78
2023-04-05T03:25:02.569Z,6.90
2023-04-05T03:28:06.608Z,7.25
2023-04-05T03:31:08.507Z,7.13
2023-04-05T03:34:09.730Z,6.93
2023-04-05T03:37:16.977Z,7.07
2023-04-05T03:40:24.669Z,6.95
2023-04-05T03:43:28.036Z,6.38
2023-04-05T03:46:29.637Z,6.35
2023-04-05T03:49:30.963Z,6.55
2023-04-05T03:52:32.007Z,6.63
2023-04-05T03:55:33.895Z,6.43
2023-04-05T03:58:39.220Z,7.43
2023-04-05T04:01:41.332Z,6.43
2023-04-05T04:04:43.319Z,6.65
2023-04-05T04:07:45.732Z,6.13
2023-04-05T04:10:47.289Z,6.93
2023-04-05T04:14:08.717Z,6.90
2023-04-05T04:17:36.914Z,7.20
2023-04-05T04:24:04.575Z,7.38
2023-04-05T04:27:26.177Z,6.78
2023-04-05T04:30:48.675Z,6.88
2023-04-05T04:34:30.826Z,6.97
2023-04-05T04:38:07.510Z,7.07
2023-04-05T04:41:14.764Z,7.35
2023-04-05T04:44:34.904Z,7.75
2023-04-05T04:47:50.191Z,8.02
2023-04-05T04:50:51.299Z,7.05
2023-04-05T04:53:53.774Z,8.15
2023-04-05T04:56:55.114Z,8.05
2023-04-05T04:59:56.116Z,7.90
2023-04-05T05:02:56.964Z,7.22
2023-04-05T05:05:58.443Z,7.00
2023-04-05T05:09:05.048Z,7.63
2023-04-05T05:12:10.519Z,7.93
2023-04-05T05:15:12.721Z,7.30
2023-04-05T05:18:13.883Z,8.63
2023-04-05T05:21:14.972Z,7.30
2023-04-05T05:24:16.680Z,7.65
2023-04-05T05:27:17.792Z,7.78
2023-04-05T05:30:20.948Z,7.82
2023-04-05T05:33:22.378Z,7.03
2023-04-05T05:36:23.664Z,6.90
2023-04-05T05:39:25.377Z,7.97
2023-04-05T05:42:27.591Z,7.13
2023-04-05T05:45:29.042Z,7.07
2023-04-05T05:48:30.294Z,7.03
2023-04-05T05:51:32.636Z,7.25
2023-04-05T05:54:33.979Z,7.72
2023-04-05T05:57:34.883Z,7.00
2023-04-05T06:00:36.692Z,6.80
2023-04-05T06:03:38.154Z,6.68
2023-04-05T06:06:40.772Z,6.93
2023-04-05T06:09:41.669Z,7.93
2023-04-05T06:12:43.085Z,6.70
2023-04-05T06:15:44.230Z,6.93
2023-04-05T06:18:45.398Z,6.32
2023-04-05T06:21:46.705Z,6.72
2023-04-05T06:24:47.567Z,6.35
2023-04-05T06:27:48.377Z,6.72
2023-04-05T06:30:49.364Z,6.80
2023-04-05T06:33:50.302Z,6.65
2023-04-05T06:36:51.518Z,6.18
2023-04-05T06:39:52.538Z,5.93
2023-04-05T06:42:53.490Z,6.10
2023-04-05T06:45:59.760Z,6.20
2023-04-05T06:49:03.761Z,6.40
2023-04-05T06:52:08.980Z,6.28
2023-04-05T06:55:10.098Z,6.35
2023-04-05T06:58:11.553Z,6.43
2023-04-05T07:01:12.361Z,6.35
2023-04-05T07:04:13.303Z,6.20
2023-04-05T07:07:14.703Z,6.50
2023-04-05T07:10:16.188Z,6.10
2023-04-05T07:13:18.751Z,5.78
2023-04-05T07:16:23.829Z,6.10
2023-04-05T07:19:25.038Z,6.47
2023-04-05T07:22:26.124Z,6.13
2023-04-05T07:25:27.926Z,5.78
2023-04-05T07:28:29.081Z,6.13
2023-04-05T07:31:31.671Z,6.18
2023-04-05T07:34:32.494Z,5.88
2023-04-05T07:37:33.876Z,5.53
2023-04-05T07:40:34.864Z,6.57
2023-04-05T07:43:35.467Z,5.65
2023-04-05T07:46:36.960Z,6.70
2023-04-05T07:49:38.226Z,5.35
2023-04-05T07:52:39.524Z,6.18
2023-04-05T07:55:41.335Z,5.72
2023-04-05T07:58:42.596Z,7.13
2023-04-05T08:01:44.174Z,5.88
2023-04-05T08:04:45.262Z,6.18
2023-04-05T08:07:46.559Z,5.88
2023-04-05T08:10:47.504Z,6.05
2023-04-05T08:13:48.838Z,6.60
2023-04-05T08:16:51.115Z,6.18
2023-04-05T08:19:53.495Z,6.03
2023-04-05T08:22:54.599Z,6.10
2023-04-05T08:25:55.657Z,6.43
2023-04-05T08:28:56.771Z,6.20
2023-04-05T08:31:58.905Z,5.55
2023-04-05T08:35:00.318Z,6.78
2023-04-05T08:38:01.167Z,6.30
2023-04-05T08:41:14.786Z,6.18
2023-04-05T08:44:21.748Z,6.03
2023-04-05T08:47:24.151Z,6.38
2023-04-05T08:50:25.658Z,6.20
2023-04-05T08:53:27.152Z,5.85
2023-04-05T08:56:35.796Z,6.53
2023-04-05T08:59:42.030Z,6.07
2023-04-05T09:02:51.263Z,6.38
2023-04-05T09:05:53.768Z,5.68
2023-04-05T09:08:58.970Z,5.63
2023-04-05T09:12:01.554Z,5.75
2023-04-05T09:15:02.952Z,5.40
2023-04-05T09:18:09.920Z,5.72
2023-04-05T09:21:17.907Z,5.28
2023-04-05T09:24:44.186Z,5.15
2023-04-05T09:27:56.778Z,5.38
2023-04-05T09:30:57.679Z,5.47
2023-04-05T09:34:01.399Z,4.90
2023-04-05T09:37:03.011Z,5.55
2023-04-05T09:40:07.157Z,5.35
2023-04-05T09:43:07.998Z,5.05
2023-04-05T09:46:34.386Z,5.40
2023-04-05T09:49:35.958Z,5.13
2023-04-05T09:52:37.423Z,5.25
2023-04-05T09:55:41.244Z,5.78
2023-04-05T09:58:43.576Z,5.50
2023-04-05T10:01:45.131Z,5.10
2023-04-05T10:04:48.688Z,5.40
2023-04-05T10:07:50.613Z,5.05
2023-04-05T10:10:56.564Z,4.72
2023-04-05T10:14:04.097Z,4.53
2023-04-05T10:20:41.055Z,5.45
2023-04-05T10:23:55.278Z,5.18
2023-04-05T10:27:12.645Z,4.68
2023-04-05T10:30:15.894Z,6.82
2023-04-05T10:33:30.094Z,4.63
2023-04-05T10:37:00.878Z,4.93
2023-04-05T10:40:04.674Z,5.57
2023-04-05T10:43:16.085Z,4.90
2023-04-05T10:46:21.864Z,5.22
2023-04-05T10:49:40.183Z,4.68
2023-04-05T10:52:42.905Z,4.43
2023-04-05T10:55:49.420Z,5.03
2023-04-05T10:58:53.272Z,4.75
2023-04-05T11:01:55.638Z,5.45
2023-04-05T11:04:57.463Z,4.93
2023-04-05T11:08:11.867Z,4.90
2023-04-05T11:11:18.943Z,4.75
2023-04-05T11:14:37.047Z,5.13
2023-04-05T11:17:37.994Z,5.03
2023-04-05T11:20:53.231Z,4.82
2023-04-05T11:24:07.275Z,5.03
2023-04-05T11:27:10.814Z,5.28
2023-04-05T11:30:12.301Z,5.28
2023-04-05T11:33:56.944Z,4.32
2023-04-05T11:36:58.459Z,4.43
2023-04-05T11:40:32.733Z,4.50
2023-04-05T11:43:35.808Z,4.80
2023-04-05T11:46:36.866Z,4.60
2023-04-05T11:49:39.694Z,5.15
2023-04-05T11:52:40.553Z,5.43
2023-04-05T11:55:47.985Z,4.75
2023-04-05T11:58:49.235Z,5.18
2023-04-05T12:02:08.583Z,5.13
2023-04-05T12:05:10.086Z,5.53
2023-04-05T12:08:11.267Z,5.50
2023-04-05T12:11:13.543Z,5.35
2023-04-05T12:14:14.492Z,5.30
2023-04-05T12:17:15.674Z,4.78
2023-04-05T12:20:21.352Z,4.80
2023-04-05T12:23:23.627Z,4.97
2023-04-05T12:26:24.845Z,5.03
2023-04-05T12:29:25.832Z,4.90
2023-04-05T12:32:36.587Z,4.60
2023-04-05T12:35:39.460Z,4.93
2023-04-05T12:38:41.144Z,5.30
2023-04-05T12:41:42.870Z,4.50
2023-04-05T12:44:43.983Z,4.50
2023-04-05T12:47:59.893Z,4.40
2023-04-05T12:51:05.356Z,5.85
2023-04-05T12:54:06.913Z,5.05
2023-04-05T12:57:12.413Z,5.68
2023-04-05T13:00:14.521Z,4.80
2023-04-05T13:03:21.563Z,5.55
2023-04-05T13:06:22.541Z,5.35
2023-04-05T13:09:23.333Z,5.13
2023-04-05T13:12:25.060Z,5.57
2023-04-05T13:15:27.361Z,4.72
2023-04-05T13:18:28.623Z,5.00
2023-04-05T13:21:29.748Z,4.53
2023-04-05T13:24:30.690Z,4.55
2023-04-05T13:27:31.586Z,5.00
2023-04-05T13:30:32.981Z,4.70
2023-04-05T13:33:33.992Z,4.50
2023-04-05T13:36:35.585Z,4.07
2023-04-05T13:39:36.728Z,4.10
2023-04-05T13:42:38.761Z,4.20
2023-04-05T13:45:40.134Z,4.63
2023-04-05T13:48:41.150Z,4.90
2023-04-05T13:51:42.189Z,4.57
2023-04-05T13:54:43.173Z,4.35
2023-04-05T13:57:44.354Z,4.72
2023-04-05T14:00:45.267Z,4.57
2023-04-05T14:03:47.385Z,4.85
2023-04-05T14:06:48.336Z,4.78
2023-04-05T14:09:49.698Z,4.78
2023-04-05T14:12:51.157Z,4.60
2023-04-05T14:15:52.856Z,4.32
2023-04-05T14:18:54.337Z,4.38
2023-04-05T14:21:55.886Z,5.13
2023-04-05T14:24:57.384Z,4.78
2023-04-05T14:27:58.651Z,5.20
2023-04-05T14:31:00.240Z,4.20
2023-04-05T14:34:01.776Z,5.13
2023-04-05T14:37:04.347Z,5.35
2023-04-05T14:40:06.320Z,5.40
2023-04-05T14:43:07.707Z,5.82
2023-04-05T14:46:09.117Z,5.15
2023-04-05T14:49:10.630Z,5.50
2023-04-05T14:52:12.620Z,5.82
2023-04-05T14:55:14.557Z,5.07
2023-04-05T14:58:15.961Z,4.95
2023-04-05T15:01:17.471Z,5.40
2023-04-05T15:04:18.964Z,5.00
2023-04-05T15:07:19.878Z,5.10
2023-04-05T15:10:21.213Z,5.10
2023-04-05T15:13:24.397Z,4.68
2023-04-05T15:16:25.467Z,5.10
2023-04-05T15:19:27.732Z,5.72
2023-04-05T15:22:29.088Z,5.88
2023-04-05T15:25:30.516Z,5.30
2023-04-05T15:28:31.797Z,5.00
2023-04-05T15:31:34.992Z,4.82
2023-04-05T15:34:36.346Z,5.38
2023-04-05T15:37:37.337Z,5.47
2023-04-05T15:40:39.970Z,5.30
2023-04-05T15:43:41.504Z,4.78
2023-04-05T15:46:42.980Z,5.75
2023-04-05T15:49:44.681Z,5.15
2023-04-05T15:52:46.077Z,5.90
2023-04-05T15:55:47.232Z,5.03
2023-04-05T15:58:48.422Z,5.38
2023-04-05T16:01:49.541Z,5.15
2023-04-05T16:04:50.605Z,4.78
2023-04-05T16:07:52.480Z,5.30
2023-04-05T16:10:53.964Z,4.82
2023-04-05T16:13:54.790Z,4.97
2023-04-05T16:16:55.991Z,5.13
2023-04-05T16:19:57.549Z,4.95
2023-04-05T16:22:58.810Z,5.40
2023-04-05T16:25:59.625Z,5.03
2023-04-05T16:29:01.700Z,4.90
2023-04-05T16:32:03.200Z,4.85
2023-04-05T16:35:04.848Z,5.25
2023-04-05T16:38:06.416Z,4.75
2023-04-05T16:41:07.545Z,4.72
2023-04-05T16:44:09.366Z,4.97
2023-04-05T16:47:10.792Z,4.55
2023-04-05T16:50:12.293Z,5.00
2023-04-05T16:53:15.187Z,5.18
2023-04-05T16:56:16.488Z,4.55
2023-04-05T16:59:17.552Z,5.15
2023-04-05T17:02:18.942Z,5.18
2023-04-05T17:05:20.536Z,5.00
2023-04-05T17:08:21.747Z,4.95
2023-04-05T17:11:23.131Z,5.10
2023-04-05T17:14:24.588Z,4.50
2023-04-05T17:17:25.939Z,4.85
2023-04-05T17:20:26.765Z,5.13
2023-04-05T17:23:28.312Z,5.60
2023-04-05T17:26:30.005Z,5.45
2023-04-05T17:29:31.194Z,5.30
2023-04-05T17:32:34.428Z,5.03
2023-04-05T17:35:35.742Z,5.07
2023-04-05T17:38:37.154Z,5.43
2023-04-05T17:41:38.692Z,4.82
2023-04-05T17:44:39.944Z,5.28
2023-04-05T17:47:41.494Z,5.03
2023-04-05T17:50:42.405Z,5.05
2023-04-05T17:53:43.643Z,5.18
2023-04-05T17:56:44.973Z,5.18
2023-04-05T17:59:46.145Z,5.30
2023-04-05T18:02:47.738Z,5.15
2023-04-05T18:05:53.794Z,4.88
2023-04-05T18:08:55.018Z,5.63
2023-04-05T18:11:56.344Z,5.90
2023-04-05T18:14:57.575Z,6.00
2023-04-05T18:17:59.011Z,5.80
2023-04-05T18:21:03.570Z,5.45
2023-04-05T18:24:05.061Z,5.43
2023-04-05T18:27:06.180Z,5.40
2023-04-05T18:30:08.039Z,5.78
2023-04-05T18:33:10.419Z,5.72
2023-04-05T18:36:12.965Z,6.28
2023-04-05T18:39:15.739Z,5.93
2023-04-05T18:42:17.620Z,7.25
2023-04-05T18:45:19.195Z,6.47
2023-04-05T18:48:20.836Z,6.95
2023-04-05T18:51:24.319Z,6.45
2023-04-05T18:54:25.687Z,6.50
2023-04-05T18:57:26.988Z,6.30
2023-04-05T19:00:28.195Z,7.65
2023-04-05T19:03:29.172Z,6.53
2023-04-05T19:06:30.724Z,6.53
2023-04-05T19:09:32.252Z,6.00
2023-04-05T19:12:33.690Z,6.05
2023-04-05T19:15:34.680Z,5.97
2023-04-05T19:18:35.872Z,6.00
2023-04-05T19:21:36.901Z,6.20
2023-04-05T19:24:41.055Z,6.22
2023-04-05T19:27:42.196Z,5.88
2023-04-05T19:30:44.113Z,6.53
2023-04-05T19:33:45.096Z,5.82
2023-04-05T19:36:46.436Z,5.55
2023-04-05T19:39:48.482Z,6.50
2023-04-05T19:42:50.068Z,6.35
2023-04-05T19:45:59.008Z,6.38
2023-04-05T19:49:10.757Z,6.78
2023-04-05T19:52:34.221Z,6.85
2023-04-05T19:55:38.136Z,6.53
2023-04-05T19:58:40.113Z,6.70
2023-04-05T20:01:42.310Z,6.05
2023-04-05T20:04:44.546Z,6.03
2023-04-05T20:07:46.180Z,5.80
2023-04-05T20:10:52.386Z,5.55
2023-04-05T20:13:57.287Z,6.32
2023-04-05T20:16:59.232Z,7.03
2023-04-05T20:20:01.738Z,6.38
2023-04-05T20:23:07.389Z,6.97
2023-04-05T20:26:12.823Z,6.53
2023-04-05T20:29:20.893Z,5.95
2023-04-05T20:32:26.641Z,6.63
2023-04-05T20:35:33.978Z,6.38
2023-04-05T20:38:35.230Z,6.85
2023-04-05T20:41:37.015Z,7.22
2023-04-05T20:44:38.212Z,7.28
2023-04-05T20:47:39.718Z,7.35
2023-04-05T20:50:41.456Z,7.00
2023-04-05T20:53:43.124Z,7.32
2023-04-05T20:56:44.621Z,7.47
2023-04-05T20:59:46.086Z,7.57
2023-04-05T21:02:47.505Z,7.65
2023-04-05T21:05:49.069Z,7.78
2023-04-05T21:08:50.302Z,8.85
2023-04-05T21:11:51.188Z,8.13
2023-04-05T21:14:52.599Z,9.38
2023-04-05T21:17:53.953Z,8.23
2023-04-05T21:20:55.740Z,7.63
2023-04-05T21:23:56.908Z,8.30
2023-04-05T21:26:57.605Z,8.23
2023-04-05T21:29:58.974Z,8.93
2023-04-05T21:33:00.187Z,7.20
2023-04-05T21:36:01.642Z,6.53
2023-04-05T21:39:02.942Z,6.70
2023-04-05T21:42:03.938Z,6.00
2023-04-05T21:45:06.285Z,7.07
2023-04-05T21:48:07.456Z,7.38
2023-04-05T21:51:08.555Z,7.22
2023-04-05T21:54:09.498Z,7.07
2023-04-05T21:57:10.586Z,7.00
2023-04-05T22:00:12.269Z,6.28
2023-04-05T22:03:15.998Z,8.32
2023-04-05T22:06:17.550Z,7.70
2023-04-05T22:09:18.799Z,7.90
2023-04-05T22:12:22.460Z,7.40
2023-04-05T22:15:23.915Z,7.30
2023-04-05T22:18:26.075Z,7.68
2023-04-05T22:21:27.333Z,7.45
2023-04-05T22:24:28.749Z,6.95
2023-04-05T22:27:30.384Z,6.55
2023-04-05T22:30:42.930Z,6.75
2023-04-05T22:33:45.373Z,6.60
2023-04-05T22:36:46.325Z,7.95
2023-04-05T22:39:47.772Z,8.48
2023-04-05T22:42:48.672Z,7.03
2023-04-05T22:45:52.255Z,6.88
2023-04-05T22:48:53.569Z,7.40
2023-04-05T22:51:54.603Z,8.00
2023-04-05T22:54:55.947Z,7.95
2023-04-05T22:57:57.261Z,7.47
2023-04-05T23:00:58.885Z,6.82
2023-04-05T23:04:00.915Z,7.30
2023-04-05T23:07:01.922Z,6.93
2023-04-05T23:10:02.946Z,7.78
2023-04-05T23:13:03.904Z,7.53
2023-04-05T23:16:05.183Z,8.43
2023-04-05T23:19:06.824Z,7.57
2023-04-05T23:22:07.989Z,7.95
2023-04-05T23:25:09.887Z,8.05
2023-04-05T23:28:11.256Z,7.88
2023-04-05T23:31:12.559Z,7.70
2023-04-05T23:34:13.638Z,7.50
2023-04-05T23:37:15.688Z,7.50
2023-04-05T23:40:17.194Z,7.97
2023-04-05T23:43:18.269Z,8.00
2023-04-05T23:46:19.194Z,7.22
2023-04-05T23:49:20.546Z,7.50
2023-04-05T23:52:21.515Z,8.27
2023-04-05T23:55:22.755Z,7.90
2023-04-05T23:58:24.384Z,7.35
